PHM03 EGPD-ZZZZ
Flight info
| Callsign | PHM03 |
|---|---|
| Flight time | N/A |
| Altitude | 3000 |
| Route | EGPD16 DCT OL610 |
| Aircraft | H145/L-V/N |
Departure
| Time | 2026-05-07 18:58 |
|---|---|
| Airport | Aberdeen International Airport (EGPD) |
Arrival
| Time | N/A |
|---|---|
| Airport | ZZZZ |
| Time | Latitude | Longitude | Altitude | Speed | Heading |
|---|---|---|---|---|---|
| 2026-05-07 18:44 | 57.20243 | -2.19378 | 244 ft | 0 kts | 19° |
| 2026-05-07 18:54 | 57.20247 | -2.19373 | 244 ft | 2 kts | 313° |
| 2026-05-07 18:54 | 57.20253 | -2.19401 | 248 ft | 3 kts | 285° |
| 2026-05-07 18:54 | 57.20259 | -2.19441 | 250 ft | 3 kts | 286° |
| 2026-05-07 18:54 | 57.20271 | -2.19464 | 250 ft | 3 kts | 341° |
| 2026-05-07 18:55 | 57.20301 | -2.19489 | 254 ft | 5 kts | 301° |
| 2026-05-07 18:55 | 57.20314 | -2.19539 | 254 ft | 3 kts | 320° |
| 2026-05-07 18:55 | 57.20332 | -2.19557 | 254 ft | 4 kts | 311° |
| 2026-05-07 18:55 | 57.20351 | -2.19612 | 257 ft | 8 kts | 272° |
| 2026-05-07 18:56 | 57.20358 | -2.19711 | 259 ft | 8 kts | 270° |
| 2026-05-07 18:56 | 57.20353 | -2.19811 | 263 ft | 8 kts | 235° |
| 2026-05-07 18:56 | 57.20327 | -2.19851 | 265 ft | 7 kts | 175° |
| 2026-05-07 18:56 | 57.20301 | -2.19855 | 259 ft | 6 kts | 161° |
| 2026-05-07 18:57 | 57.20151 | -2.19750 | 326 ft | 42 kts | 160° |
| 2026-05-07 18:57 | 57.19778 | -2.19489 | 409 ft | 70 kts | 159° |
| 2026-05-07 18:57 | 57.19284 | -2.19114 | 514 ft | 83 kts | 157° |
| 2026-05-07 18:57 | 57.18743 | -2.18697 | 648 ft | 84 kts | 155° |
| 2026-05-07 18:58 | 57.18342 | -2.17914 | 751 ft | 89 kts | 122° |
| 2026-05-07 18:58 | 57.18232 | -2.16760 | 863 ft | 92 kts | 93° |
| 2026-05-07 18:58 | 57.18314 | -2.15547 | 1033 ft | 98 kts | 92° |
| 2026-05-07 18:58 | 57.18401 | -2.14262 | 1174 ft | 103 kts | 95° |
| 2026-05-07 18:59 | 57.18492 | -2.12921 | 1304 ft | 107 kts | 92° |
| 2026-05-07 18:59 | 57.18569 | -2.11541 | 1439 ft | 109 kts | 94° |
| 2026-05-07 18:59 | 57.18623 | -2.10149 | 1558 ft | 111 kts | 97° |
| 2026-05-07 18:59 | 57.18655 | -2.08717 | 1658 ft | 113 kts | 95° |
| 2026-05-07 19:00 | 57.18666 | -2.07274 | 1753 ft | 111 kts | 99° |
| 2026-05-07 19:00 | 57.18658 | -2.05864 | 1873 ft | 109 kts | 102° |
| 2026-05-07 19:00 | 57.18659 | -2.04477 | 1991 ft | 109 kts | 95° |
| 2026-05-07 19:00 | 57.18722 | -2.03094 | 2106 ft | 107 kts | 93° |
| 2026-05-07 19:01 | 57.18765 | -2.01727 | 2236 ft | 106 kts | 93° |
| 2026-05-07 19:01 | 57.18751 | -2.00372 | 2346 ft | 105 kts | 101° |
| 2026-05-07 19:01 | 57.18659 | -1.99038 | 2469 ft | 105 kts | 103° |
| 2026-05-07 19:01 | 57.18557 | -1.97704 | 2590 ft | 105 kts | 102° |
| 2026-05-07 19:02 | 57.18454 | -1.96353 | 2715 ft | 106 kts | 103° |
| 2026-05-07 19:02 | 57.18349 | -1.94995 | 2838 ft | 107 kts | 101° |
| 2026-05-07 19:02 | 57.18244 | -1.93645 | 2968 ft | 108 kts | 102° |
| 2026-05-07 19:02 | 57.18140 | -1.92264 | 3015 ft | 109 kts | 99° |
| 2026-05-07 19:03 | 57.18039 | -1.90869 | 2978 ft | 115 kts | 99° |
| 2026-05-07 19:03 | 57.17898 | -1.89219 | 2971 ft | 137 kts | 101° |
| 2026-05-07 19:03 | 57.17769 | -1.87549 | 2997 ft | 129 kts | 98° |
| 2026-05-07 19:03 | 57.17644 | -1.85882 | 2996 ft | 134 kts | 100° |
| 2026-05-07 19:04 | 57.17511 | -1.84183 | 3004 ft | 133 kts | 101° |
| 2026-05-07 19:04 | 57.17381 | -1.82500 | 3001 ft | 132 kts | 103° |
| 2026-05-07 19:04 | 57.17251 | -1.80831 | 3000 ft | 131 kts | 102° |
| 2026-05-07 19:04 | 57.17122 | -1.79168 | 3000 ft | 131 kts | 104° |
| 2026-05-07 19:05 | 57.16993 | -1.77515 | 2978 ft | 130 kts | 103° |
| 2026-05-07 19:05 | 57.16866 | -1.75895 | 2988 ft | 129 kts | 105° |
| 2026-05-07 19:05 | 57.16737 | -1.74256 | 2995 ft | 129 kts | 107° |
| 2026-05-07 19:05 | 57.16608 | -1.72620 | 2998 ft | 129 kts | 105° |
| 2026-05-07 19:06 | 57.16479 | -1.70984 | 2998 ft | 130 kts | 108° |
| 2026-05-07 19:06 | 57.16217 | -1.67690 | 3001 ft | 129 kts | 109° |
| 2026-05-07 19:06 | 57.16088 | -1.66062 | 3001 ft | 129 kts | 108° |
| 2026-05-07 19:07 | 57.15959 | -1.64426 | 3010 ft | 129 kts | 109° |
| 2026-05-07 19:07 | 57.15829 | -1.62798 | 3009 ft | 128 kts | 108° |
| 2026-05-07 19:07 | 57.15698 | -1.61168 | 3008 ft | 129 kts | 106° |
| 2026-05-07 19:07 | 57.15566 | -1.59516 | 3008 ft | 131 kts | 105° |
| 2026-05-07 19:08 | 57.15431 | -1.57856 | 3012 ft | 131 kts | 106° |
| 2026-05-07 19:08 | 57.15300 | -1.56215 | 3013 ft | 131 kts | 108° |
| 2026-05-07 19:08 | 57.15169 | -1.54569 | 3015 ft | 129 kts | 106° |
| 2026-05-07 19:08 | 57.15042 | -1.52942 | 3012 ft | 129 kts | 103° |
| 2026-05-07 19:09 | 57.14910 | -1.51309 | 3013 ft | 129 kts | 106° |
| 2026-05-07 19:09 | 57.14774 | -1.49683 | 3013 ft | 128 kts | 108° |
| 2026-05-07 19:09 | 57.14640 | -1.48057 | 3013 ft | 129 kts | 109° |
| 2026-05-07 19:09 | 57.14506 | -1.46424 | 3014 ft | 129 kts | 109° |
| 2026-05-07 19:10 | 57.14374 | -1.44788 | 3010 ft | 129 kts | 108° |
| 2026-05-07 19:10 | 57.14240 | -1.43155 | 3009 ft | 129 kts | 108° |
| 2026-05-07 19:10 | 57.14106 | -1.41524 | 3023 ft | 128 kts | 107° |
| 2026-05-07 19:10 | 57.13973 | -1.39905 | 3021 ft | 129 kts | 109° |
| 2026-05-07 19:11 | 57.13838 | -1.38273 | 3029 ft | 128 kts | 107° |
| 2026-05-07 19:11 | 57.13704 | -1.36644 | 3025 ft | 129 kts | 108° |
| 2026-05-07 19:11 | 57.13570 | -1.35010 | 3026 ft | 130 kts | 109° |
| 2026-05-07 19:11 | 57.13433 | -1.33362 | 3026 ft | 130 kts | 107° |
| 2026-05-07 19:12 | 57.13299 | -1.31718 | 3023 ft | 130 kts | 109° |
| 2026-05-07 19:12 | 57.13163 | -1.30077 | 3009 ft | 130 kts | 108° |
| 2026-05-07 19:12 | 57.13027 | -1.28431 | 2999 ft | 130 kts | 108° |
| 2026-05-07 19:12 | 57.12891 | -1.26792 | 2994 ft | 130 kts | 110° |
| 2026-05-07 19:13 | 57.12756 | -1.25172 | 2991 ft | 130 kts | 108° |
| 2026-05-07 19:13 | 57.12621 | -1.23538 | 2990 ft | 129 kts | 109° |
| 2026-05-07 19:13 | 57.12485 | -1.21905 | 2990 ft | 129 kts | 107° |
| 2026-05-07 19:13 | 57.12351 | -1.20276 | 2989 ft | 129 kts | 108° |
| 2026-05-07 19:14 | 57.12215 | -1.18645 | 2986 ft | 129 kts | 108° |
| 2026-05-07 19:14 | 57.12076 | -1.17012 | 2987 ft | 130 kts | 109° |
| 2026-05-07 19:14 | 57.11938 | -1.15367 | 2994 ft | 131 kts | 106° |